sensor_id;sensor_type;location;lat;lon;timestamp;pressure;altitude;pressure_sealevel;temperature;humidity
8101;BME280;4093;53.470;9.832;2022-08-03T00:00:51;101440.75;;;24.20;73.11
8101;BME280;4093;53.470;9.832;2022-08-03T00:03:17;101440.78;;;24.47;71.96
8101;BME280;4093;53.470;9.832;2022-08-03T00:05:44;101432.25;;;24.56;71.19
8101;BME280;4093;53.470;9.832;2022-08-03T00:08:10;101431.16;;;24.73;71.10
8101;BME280;4093;53.470;9.832;2022-08-03T00:10:37;101413.31;;;24.62;70.80
8101;BME280;4093;53.470;9.832;2022-08-03T00:13:04;101421.19;;;24.64;70.75
8101;BME280;4093;53.470;9.832;2022-08-03T00:15:30;101410.19;;;24.70;70.51
8101;BME280;4093;53.470;9.832;2022-08-03T00:17:58;101418.88;;;24.85;70.39
8101;BME280;4093;53.470;9.832;2022-08-03T00:20:25;101408.69;;;24.66;70.41
8101;BME280;4093;53.470;9.832;2022-08-03T00:22:51;101400.41;;;24.58;70.32
8101;BME280;4093;53.470;9.832;2022-08-03T00:25:18;101409.34;;;24.69;69.36
8101;BME280;4093;53.470;9.832;2022-08-03T00:27:44;101387.53;;;24.39;70.59
8101;BME280;4093;53.470;9.832;2022-08-03T00:30:11;101382.03;;;24.15;71.77
8101;BME280;4093;53.470;9.832;2022-08-03T00:32:38;101392.66;;;24.28;71.26
8101;BME280;4093;53.470;9.832;2022-08-03T00:35:07;101378.31;;;23.62;73.27
8101;BME280;4093;53.470;9.832;2022-08-03T00:37:33;101392.38;;;23.76;73.45
8101;BME280;4093;53.470;9.832;2022-08-03T00:40:00;101391.44;;;23.92;72.82
8101;BME280;4093;53.470;9.832;2022-08-03T00:42:27;101384.06;;;23.40;74.41
8101;BME280;4093;53.470;9.832;2022-08-03T00:44:53;101398.50;;;23.48;74.05
8101;BME280;4093;53.470;9.832;2022-08-03T00:47:20;101385.53;;;23.15;74.94
8101;BME280;4093;53.470;9.832;2022-08-03T00:49:46;101405.53;;;23.33;74.46
8101;BME280;4093;53.470;9.832;2022-08-03T00:52:14;101396.28;;;23.12;75.04
8101;BME280;4093;53.470;9.832;2022-08-03T00:54:41;101391.19;;;22.79;76.04
8101;BME280;4093;53.470;9.832;2022-08-03T00:57:08;101403.34;;;23.12;74.82
8101;BME280;4093;53.470;9.832;2022-08-03T00:59:35;101387.91;;;22.90;74.84
8101;BME280;4093;53.470;9.832;2022-08-03T01:02:02;101393.94;;;22.92;75.23
8101;BME280;4093;53.470;9.832;2022-08-03T01:04:29;101377.69;;;22.69;75.66
8101;BME280;4093;53.470;9.832;2022-08-03T01:07:00;101421.84;;;23.26;74.07
8101;BME280;4093;53.470;9.832;2022-08-03T01:09:37;101416.22;;;23.32;73.96
8101;BME280;4093;53.470;9.832;2022-08-03T01:12:12;101413.47;;;23.62;72.45
8101;BME280;4093;53.470;9.832;2022-08-03T01:14:49;101412.38;;;23.66;72.33
8101;BME280;4093;53.470;9.832;2022-08-03T01:17:21;101402.19;;;23.60;71.95
8101;BME280;4093;53.470;9.832;2022-08-03T01:19:54;101396.78;;;23.62;71.83
8101;BME280;4093;53.470;9.832;2022-08-03T01:22:43;101388.06;;;23.75;71.43
8101;BME280;4093;53.470;9.832;2022-08-03T01:25:23;101384.44;;;23.62;71.34
8101;BME280;4093;53.470;9.832;2022-08-03T01:28:00;101350.41;;;23.29;72.27
8101;BME280;4093;53.470;9.832;2022-08-03T01:30:30;101377.38;;;23.48;71.59
8101;BME280;4093;53.470;9.832;2022-08-03T01:33:01;101357.78;;;22.94;74.06
8101;BME280;4093;53.470;9.832;2022-08-03T01:35:34;101376.28;;;23.08;73.71
8101;BME280;4093;53.470;9.832;2022-08-03T01:38:03;101373.19;;;23.01;73.42
8101;BME280;4093;53.470;9.832;2022-08-03T01:40:33;101370.97;;;22.94;73.45
8101;BME280;4093;53.470;9.832;2022-08-03T01:43:03;101390.34;;;23.08;73.64
8101;BME280;4093;53.470;9.832;2022-08-03T01:45:33;101390.91;;;23.28;72.79
8101;BME280;4093;53.470;9.832;2022-08-03T01:48:01;101377.34;;;23.20;72.51
8101;BME280;4093;53.470;9.832;2022-08-03T01:50:29;101374.03;;;23.02;72.67
8101;BME280;4093;53.470;9.832;2022-08-03T01:52:58;101389.78;;;23.03;73.35
8101;BME280;4093;53.470;9.832;2022-08-03T01:55:26;101383.25;;;22.95;73.62
8101;BME280;4093;53.470;9.832;2022-08-03T01:57:54;101379.00;;;22.76;74.01
8101;BME280;4093;53.470;9.832;2022-08-03T02:00:22;101392.59;;;23.00;72.85
8101;BME280;4093;53.470;9.832;2022-08-03T02:02:53;101381.16;;;23.00;72.94
8101;BME280;4093;53.470;9.832;2022-08-03T02:05:20;101360.31;;;22.65;74.02
8101;BME280;4093;53.470;9.832;2022-08-03T02:07:48;101361.72;;;22.56;74.68
8101;BME280;4093;53.470;9.832;2022-08-03T02:10:18;101377.88;;;22.80;73.64
8101;BME280;4093;53.470;9.832;2022-08-03T02:12:48;101384.13;;;22.79;73.61
8101;BME280;4093;53.470;9.832;2022-08-03T02:15:15;101363.91;;;22.64;74.09
8101;BME280;4093;53.470;9.832;2022-08-03T02:17:44;101392.22;;;22.91;73.18
8101;BME280;4093;53.470;9.832;2022-08-03T02:20:13;101373.63;;;22.94;72.65
8101;BME280;4093;53.470;9.832;2022-08-03T02:22:42;101399.91;;;23.25;72.06
8101;BME280;4093;53.470;9.832;2022-08-03T02:25:11;101392.75;;;23.42;71.37
8101;BME280;4093;53.470;9.832;2022-08-03T02:27:41;101385.09;;;23.37;71.16
8101;BME280;4093;53.470;9.832;2022-08-03T02:30:10;101358.31;;;23.15;72.22
8101;BME280;4093;53.470;9.832;2022-08-03T02:32:40;101344.16;;;23.01;72.09
8101;BME280;4093;53.470;9.832;2022-08-03T02:35:10;101359.50;;;23.09;72.04
8101;BME280;4093;53.470;9.832;2022-08-03T02:37:41;101367.81;;;23.17;71.92
8101;BME280;4093;53.470;9.832;2022-08-03T02:40:09;101356.50;;;23.01;72.52
8101;BME280;4093;53.470;9.832;2022-08-03T02:42:38;101348.34;;;22.90;72.71
8101;BME280;4093;53.470;9.832;2022-08-03T02:45:07;101356.41;;;23.02;72.32
8101;BME280;4093;53.470;9.832;2022-08-03T02:47:37;101350.91;;;22.91;73.06
8101;BME280;4093;53.470;9.832;2022-08-03T02:50:07;101365.25;;;23.16;71.63
8101;BME280;4093;53.470;9.832;2022-08-03T02:52:35;101361.03;;;23.27;71.56
8101;BME280;4093;53.470;9.832;2022-08-03T02:55:06;101357.47;;;23.14;72.08
8101;BME280;4093;53.470;9.832;2022-08-03T02:57:34;101327.56;;;22.99;71.92
8101;BME280;4093;53.470;9.832;2022-08-03T03:00:04;101367.09;;;23.29;71.91
8101;BME280;4093;53.470;9.832;2022-08-03T03:02:31;101316.69;;;22.90;72.46
8101;BME280;4093;53.470;9.832;2022-08-03T03:04:59;101360.78;;;23.32;71.66
8101;BME280;4093;53.470;9.832;2022-08-03T03:07:27;101352.53;;;23.08;72.33
8101;BME280;4093;53.470;9.832;2022-08-03T03:09:54;101328.78;;;22.94;72.53
8101;BME280;4093;53.470;9.832;2022-08-03T03:12:23;101341.44;;;22.87;73.02
8101;BME280;4093;53.470;9.832;2022-08-03T03:14:51;101352.94;;;22.86;73.28
8101;BME280;4093;53.470;9.832;2022-08-03T03:17:19;101355.28;;;23.06;72.00
8101;BME280;4093;53.470;9.832;2022-08-03T03:19:48;101348.16;;;22.93;72.39
8101;BME280;4093;53.470;9.832;2022-08-03T03:22:16;101356.69;;;22.98;72.31
8101;BME280;4093;53.470;9.832;2022-08-03T03:24:44;101352.47;;;22.79;73.46
8101;BME280;4093;53.470;9.832;2022-08-03T03:27:13;101367.47;;;22.93;72.50
8101;BME280;4093;53.470;9.832;2022-08-03T03:29:41;101374.19;;;22.99;72.44
8101;BME280;4093;53.470;9.832;2022-08-03T03:32:08;101345.03;;;22.56;73.56
8101;BME280;4093;53.470;9.832;2022-08-03T03:34:35;101365.53;;;22.81;72.46
8101;BME280;4093;53.470;9.832;2022-08-03T03:37:02;101328.56;;;22.52;72.92
8101;BME280;4093;53.470;9.832;2022-08-03T03:39:29;101357.31;;;22.71;72.76
8101;BME280;4093;53.470;9.832;2022-08-03T03:41:56;101356.66;;;22.68;72.59
8101;BME280;4093;53.470;9.832;2022-08-03T03:44:25;101371.22;;;22.89;72.07
8101;BME280;4093;53.470;9.832;2022-08-03T03:46:53;101359.13;;;22.71;72.12
8101;BME280;4093;53.470;9.832;2022-08-03T03:49:20;101356.84;;;22.64;72.58
8101;BME280;4093;53.470;9.832;2022-08-03T03:51:47;101361.50;;;22.75;71.97
8101;BME280;4093;53.470;9.832;2022-08-03T03:54:13;101373.53;;;22.95;71.51
8101;BME280;4093;53.470;9.832;2022-08-03T03:56:40;101356.78;;;22.80;71.92
8101;BME280;4093;53.470;9.832;2022-08-03T03:59:06;101372.34;;;23.01;70.98
8101;BME280;4093;53.470;9.832;2022-08-03T04:01:33;101375.34;;;23.09;71.26
8101;BME280;4093;53.470;9.832;2022-08-03T04:04:01;101358.00;;;23.05;71.19
8101;BME280;4093;53.470;9.832;2022-08-03T04:06:48;101377.00;;;23.26;70.68
8101;BME280;4093;53.470;9.832;2022-08-03T04:09:34;101356.69;;;22.98;71.55
8101;BME280;4093;53.470;9.832;2022-08-03T04:12:20;101371.72;;;23.26;70.90
8101;BME280;4093;53.470;9.832;2022-08-03T04:14:48;101351.03;;;23.04;71.23
8101;BME280;4093;53.470;9.832;2022-08-03T04:17:17;101357.28;;;23.17;71.16
8101;BME280;4093;53.470;9.832;2022-08-03T04:19:48;101359.16;;;23.29;70.05
8101;BME280;4093;53.470;9.832;2022-08-03T04:22:17;101348.50;;;23.17;70.82
8101;BME280;4093;53.470;9.832;2022-08-03T04:24:49;101364.25;;;23.32;70.16
8101;BME280;4093;53.470;9.832;2022-08-03T04:27:23;101336.25;;;23.16;70.72
8101;BME280;4093;53.470;9.832;2022-08-03T04:29:52;101338.03;;;23.01;71.54
8101;BME280;4093;53.470;9.832;2022-08-03T04:32:20;101363.03;;;23.24;70.92
8101;BME280;4093;53.470;9.832;2022-08-03T04:34:51;101354.44;;;23.20;70.83
8101;BME280;4093;53.470;9.832;2022-08-03T04:37:24;101343.19;;;23.02;71.80
8101;BME280;4093;53.470;9.832;2022-08-03T04:39:52;101357.56;;;23.27;71.37
8101;BME280;4093;53.470;9.832;2022-08-03T04:42:22;101354.72;;;23.30;71.05
8101;BME280;4093;53.470;9.832;2022-08-03T04:44:50;101352.56;;;23.22;70.99
8101;BME280;4093;53.470;9.832;2022-08-03T04:47:18;101378.94;;;23.65;70.08
8101;BME280;4093;53.470;9.832;2022-08-03T04:49:46;101383.88;;;23.71;69.03
8101;BME280;4093;53.470;9.832;2022-08-03T04:52:14;101380.22;;;23.88;68.99
8101;BME280;4093;53.470;9.832;2022-08-03T04:54:41;101362.91;;;23.68;69.89
8101;BME280;4093;53.470;9.832;2022-08-03T04:57:09;101370.09;;;23.95;68.74
8101;BME280;4093;53.470;9.832;2022-08-03T04:59:35;101393.22;;;24.33;68.12
8101;BME280;4093;53.470;9.832;2022-08-03T05:02:02;101370.03;;;24.09;68.74
8101;BME280;4093;53.470;9.832;2022-08-03T05:04:29;101356.81;;;24.09;68.32
8101;BME280;4093;53.470;9.832;2022-08-03T05:06:55;101366.81;;;24.18;67.72
8101;BME280;4093;53.470;9.832;2022-08-03T05:09:23;101407.13;;;26.41;61.64
8101;BME280;4093;53.470;9.832;2022-08-03T05:11:50;101376.22;;;27.57;57.56
8101;BME280;4093;53.470;9.832;2022-08-03T05:14:16;101364.63;;;29.80;51.72
8101;BME280;4093;53.470;9.832;2022-08-03T05:16:43;101345.19;;;30.09;51.09
8101;BME280;4093;53.470;9.832;2022-08-03T05:19:09;101326.78;;;29.46;52.43
8101;BME280;4093;53.470;9.832;2022-08-03T05:21:36;101326.09;;;30.81;48.21
8101;BME280;4093;53.470;9.832;2022-08-03T05:24:03;101328.59;;;29.95;50.95
8101;BME280;4093;53.470;9.832;2022-08-03T05:26:31;101323.53;;;30.02;50.62
8101;BME280;4093;53.470;9.832;2022-08-03T05:28:57;101316.94;;;31.21;47.41
8101;BME280;4093;53.470;9.832;2022-08-03T05:31:24;101327.19;;;31.63;46.81
8101;BME280;4093;53.470;9.832;2022-08-03T05:33:51;101327.31;;;31.89;46.68
8101;BME280;4093;53.470;9.832;2022-08-03T05:36:17;101334.72;;;32.67;45.26
8101;BME280;4093;53.470;9.832;2022-08-03T05:38:44;101322.59;;;33.49;42.14
8101;BME280;4093;53.470;9.832;2022-08-03T05:41:11;101329.63;;;35.46;40.41
8101;BME280;4093;53.470;9.832;2022-08-03T05:43:38;101310.78;;;33.68;41.94
8101;BME280;4093;53.470;9.832;2022-08-03T05:46:05;101309.28;;;31.91;44.91
8101;BME280;4093;53.470;9.832;2022-08-03T05:48:32;101325.50;;;32.95;44.04
8101;BME280;4093;53.470;9.832;2022-08-03T05:50:58;101320.44;;;33.10;44.16
8101;BME280;4093;53.470;9.832;2022-08-03T05:53:25;101300.25;;;32.10;45.14
8101;BME280;4093;53.470;9.832;2022-08-03T05:55:53;101309.31;;;31.36;46.48
8101;BME280;4093;53.470;9.832;2022-08-03T05:58:20;101326.63;;;33.45;42.80
8101;BME280;4093;53.470;9.832;2022-08-03T06:00:48;101303.06;;;32.26;45.25
8101;BME280;4093;53.470;9.832;2022-08-03T06:03:14;101323.91;;;33.03;44.45
8101;BME280;4093;53.470;9.832;2022-08-03T06:05:41;101317.06;;;32.02;46.28
8101;BME280;4093;53.470;9.832;2022-08-03T06:08:08;101312.75;;;32.63;44.13
8101;BME280;4093;53.470;9.832;2022-08-03T06:10:34;101322.50;;;36.16;38.84
8101;BME280;4093;53.470;9.832;2022-08-03T06:13:01;101295.63;;;36.08;38.19
8101;BME280;4093;53.470;9.832;2022-08-03T06:15:27;101312.09;;;35.19;40.05
8101;BME280;4093;53.470;9.832;2022-08-03T06:17:56;101308.53;;;34.63;40.39
8101;BME280;4093;53.470;9.832;2022-08-03T06:20:22;101309.72;;;35.87;38.88
8101;BME280;4093;53.470;9.832;2022-08-03T06:22:49;101303.09;;;37.47;36.44
8101;BME280;4093;53.470;9.832;2022-08-03T06:25:16;101303.16;;;39.38;33.49
8101;BME280;4093;53.470;9.832;2022-08-03T06:27:43;101299.63;;;38.96;33.77
8101;BME280;4093;53.470;9.832;2022-08-03T06:30:11;101304.56;;;38.85;33.87
8101;BME280;4093;53.470;9.832;2022-08-03T06:32:38;101299.59;;;38.61;34.55
8101;BME280;4093;53.470;9.832;2022-08-03T06:35:07;101302.75;;;38.64;34.56
8101;BME280;4093;53.470;9.832;2022-08-03T06:37:41;101303.00;;;39.52;33.03
8101;BME280;4093;53.470;9.832;2022-08-03T06:40:09;101301.47;;;37.89;35.86
8101;BME280;4093;53.470;9.832;2022-08-03T06:42:36;101311.44;;;36.49;37.54
8101;BME280;4093;53.470;9.832;2022-08-03T06:45:04;101309.47;;;36.43;37.08
8101;BME280;4093;53.470;9.832;2022-08-03T06:47:30;101315.16;;;38.31;34.53
8101;BME280;4093;53.470;9.832;2022-08-03T06:49:57;101322.44;;;39.76;32.79
8101;BME280;4093;53.470;9.832;2022-08-03T06:52:25;101320.22;;;39.99;32.39
8101;BME280;4093;53.470;9.832;2022-08-03T06:54:51;101335.59;;;42.45;30.48
8101;BME280;4093;53.470;9.832;2022-08-03T06:57:18;101313.72;;;40.07;32.69
8101;BME280;4093;53.470;9.832;2022-08-03T06:59:44;101318.00;;;37.28;35.91
8101;BME280;4093;53.470;9.832;2022-08-03T07:02:11;101326.56;;;38.82;33.85
8101;BME280;4093;53.470;9.832;2022-08-03T07:04:38;101312.84;;;39.73;33.14
8101;BME280;4093;53.470;9.832;2022-08-03T07:07:04;101314.44;;;39.00;33.66
8101;BME280;4093;53.470;9.832;2022-08-03T07:09:32;101318.03;;;39.68;33.23
8101;BME280;4093;53.470;9.832;2022-08-03T07:11:59;101321.50;;;39.42;33.80
8101;BME280;4093;53.470;9.832;2022-08-03T07:14:26;101312.31;;;40.31;32.88
8101;BME280;4093;53.470;9.832;2022-08-03T07:16:53;101319.34;;;39.92;32.77
8101;BME280;4093;53.470;9.832;2022-08-03T07:19:19;101321.34;;;41.17;32.21
8101;BME280;4093;53.470;9.832;2022-08-03T07:21:46;101324.44;;;39.54;33.57
8101;BME280;4093;53.470;9.832;2022-08-03T07:24:13;101326.38;;;38.49;34.96
8101;BME280;4093;53.470;9.832;2022-08-03T07:26:41;101334.84;;;41.30;31.68
8101;BME280;4093;53.470;9.832;2022-08-03T07:29:08;101322.69;;;40.87;31.75
8101;BME280;4093;53.470;9.832;2022-08-03T07:31:34;101329.63;;;37.59;35.82
8101;BME280;4093;53.470;9.832;2022-08-03T07:34:01;101324.91;;;37.16;36.20
8101;BME280;4093;53.470;9.832;2022-08-03T07:36:27;101342.16;;;39.50;33.89
8101;BME280;4093;53.470;9.832;2022-08-03T07:38:54;101333.59;;;40.28;32.92
8101;BME280;4093;53.470;9.832;2022-08-03T07:41:22;101333.13;;;40.70;31.81
8101;BME280;4093;53.470;9.832;2022-08-03T07:43:50;101328.84;;;41.14;31.34
8101;BME280;4093;53.470;9.832;2022-08-03T07:46:16;101341.66;;;39.33;33.96
8101;BME280;4093;53.470;9.832;2022-08-03T07:48:43;101340.22;;;40.58;32.99
8101;BME280;4093;53.470;9.832;2022-08-03T07:51:09;101345.63;;;42.20;31.02
8101;BME280;4093;53.470;9.832;2022-08-03T07:53:36;101333.50;;;42.47;30.40
8101;BME280;4093;53.470;9.832;2022-08-03T07:56:03;101329.00;;;40.28;33.19
8101;BME280;4093;53.470;9.832;2022-08-03T07:58:30;101323.94;;;39.92;32.92
8101;BME280;4093;53.470;9.832;2022-08-03T08:00:58;101325.31;;;37.86;36.13
8101;BME280;4093;53.470;9.832;2022-08-03T08:03:25;101325.16;;;35.31;40.09
8101;BME280;4093;53.470;9.832;2022-08-03T08:05:51;101329.81;;;36.83;37.31
8101;BME280;4093;53.470;9.832;2022-08-03T08:08:18;101330.66;;;35.77;39.72
8101;BME280;4093;53.470;9.832;2022-08-03T08:10:45;101346.91;;;38.22;36.15
8101;BME280;4093;53.470;9.832;2022-08-03T08:13:12;101331.72;;;34.72;41.89
8101;BME280;4093;53.470;9.832;2022-08-03T08:15:38;101326.13;;;36.00;39.52
8101;BME280;4093;53.470;9.832;2022-08-03T08:18:06;101342.09;;;38.17;35.90
8101;BME280;4093;53.470;9.832;2022-08-03T08:20:34;101344.38;;;38.98;35.59
8101;BME280;4093;53.470;9.832;2022-08-03T08:23:03;101320.25;;;35.74;39.22
8101;BME280;4093;53.470;9.832;2022-08-03T08:25:30;101323.94;;;36.65;39.15
8101;BME280;4093;53.470;9.832;2022-08-03T08:27:58;101317.59;;;35.65;39.94
8101;BME280;4093;53.470;9.832;2022-08-03T08:30:27;101336.19;;;36.52;39.45
8101;BME280;4093;53.470;9.832;2022-08-03T08:32:53;101342.47;;;38.14;37.15
8101;BME280;4093;53.470;9.832;2022-08-03T08:35:21;101344.91;;;37.73;38.44
8101;BME280;4093;53.470;9.832;2022-08-03T08:37:48;101340.25;;;37.45;37.99
8101;BME280;4093;53.470;9.832;2022-08-03T08:40:15;101333.28;;;39.21;34.91
8101;BME280;4093;53.470;9.832;2022-08-03T08:42:42;101341.91;;;40.19;34.45
8101;BME280;4093;53.470;9.832;2022-08-03T08:45:10;101317.75;;;39.02;35.35
8101;BME280;4093;53.470;9.832;2022-08-03T08:47:38;101325.31;;;37.64;37.95
8101;BME280;4093;53.470;9.832;2022-08-03T08:50:07;101337.91;;;38.15;37.22
8101;BME280;4093;53.470;9.832;2022-08-03T08:52:39;101331.97;;;39.59;35.10
8101;BME280;4093;53.470;9.832;2022-08-03T08:55:08;101333.56;;;40.47;33.61
8101;BME280;4093;53.470;9.832;2022-08-03T08:57:37;101322.56;;;38.72;35.68
8101;BME280;4093;53.470;9.832;2022-08-03T09:00:05;101340.72;;;38.50;36.38
8101;BME280;4093;53.470;9.832;2022-08-03T09:02:33;101340.66;;;40.09;34.60
8101;BME280;4093;53.470;9.832;2022-08-03T09:05:00;101337.97;;;39.41;34.86
8101;BME280;4093;53.470;9.832;2022-08-03T09:07:28;101323.53;;;37.71;37.81
8101;BME280;4093;53.470;9.832;2022-08-03T09:09:56;101334.59;;;37.77;37.38
8101;BME280;4093;53.470;9.832;2022-08-03T09:12:22;101308.81;;;34.85;41.66
8101;BME280;4093;53.470;9.832;2022-08-03T09:14:49;101329.00;;;35.36;42.31
8101;BME280;4093;53.470;9.832;2022-08-03T09:17:16;101336.88;;;35.38;41.95
8101;BME280;4093;53.470;9.832;2022-08-03T09:19:43;101328.19;;;33.56;45.93
8101;BME280;4093;53.470;9.832;2022-08-03T09:22:28;101340.78;;;34.22;43.89
8101;BME280;4093;53.470;9.832;2022-08-03T09:25:00;101329.28;;;35.10;42.60
8101;BME280;4093;53.470;9.832;2022-08-03T09:27:27;101329.09;;;35.12;44.01
8101;BME280;4093;53.470;9.832;2022-08-03T09:29:54;101341.09;;;34.36;44.80
8101;BME280;4093;53.470;9.832;2022-08-03T09:32:22;101337.09;;;34.64;44.21
8101;BME280;4093;53.470;9.832;2022-08-03T09:34:50;101323.63;;;34.40;44.64
8101;BME280;4093;53.470;9.832;2022-08-03T09:37:18;101323.00;;;32.68;46.88
8101;BME280;4093;53.470;9.832;2022-08-03T09:39:47;101339.09;;;33.54;45.73
8101;BME280;4093;53.470;9.832;2022-08-03T09:42:16;101340.63;;;33.65;46.21
8101;BME280;4093;53.470;9.832;2022-08-03T09:44:44;101340.50;;;33.40;47.22
8101;BME280;4093;53.470;9.832;2022-08-03T09:47:13;101331.19;;;34.44;45.01
8101;BME280;4093;53.470;9.832;2022-08-03T09:49:41;101343.63;;;33.54;47.06
8101;BME280;4093;53.470;9.832;2022-08-03T09:52:12;101345.34;;;33.37;45.96
8101;BME280;4093;53.470;9.832;2022-08-03T09:54:40;101342.28;;;34.33;44.87
8101;BME280;4093;53.470;9.832;2022-08-03T09:57:07;101340.59;;;34.24;45.62
8101;BME280;4093;53.470;9.832;2022-08-03T09:59:35;101331.38;;;34.51;44.75
8101;BME280;4093;53.470;9.832;2022-08-03T10:02:02;101335.41;;;34.63;44.99
8101;BME280;4093;53.470;9.832;2022-08-03T10:04:29;101332.88;;;34.70;44.67
8101;BME280;4093;53.470;9.832;2022-08-03T10:07:04;101315.88;;;34.77;44.11
8101;BME280;4093;53.470;9.832;2022-08-03T10:09:31;101330.88;;;34.56;44.76
8101;BME280;4093;53.470;9.832;2022-08-03T10:12:06;101327.81;;;34.83;44.19
8101;BME280;4093;53.470;9.832;2022-08-03T10:14:37;101322.63;;;34.24;45.22
8101;BME280;4093;53.470;9.832;2022-08-03T10:17:04;101324.09;;;33.94;46.70
8101;BME280;4093;53.470;9.832;2022-08-03T10:19:31;101330.00;;;34.06;45.78
8101;BME280;4093;53.470;9.832;2022-08-03T10:22:02;101324.31;;;34.42;45.49
8101;BME280;4093;53.470;9.832;2022-08-03T10:24:29;101328.00;;;34.08;45.76
8101;BME280;4093;53.470;9.832;2022-08-03T10:27:01;101321.41;;;33.09;47.82
8101;BME280;4093;53.470;9.832;2022-08-03T10:29:32;101328.75;;;33.33;47.33
8101;BME280;4093;53.470;9.832;2022-08-03T10:32:03;101327.31;;;34.06;46.54
8101;BME280;4093;53.470;9.832;2022-08-03T10:34:36;101317.25;;;33.07;47.94
8101;BME280;4093;53.470;9.832;2022-08-03T10:37:09;101320.22;;;33.97;46.78
8101;BME280;4093;53.470;9.832;2022-08-03T10:39:36;101314.91;;;34.62;45.25
8101;BME280;4093;53.470;9.832;2022-08-03T10:42:04;101316.22;;;34.74;45.56
8101;BME280;4093;53.470;9.832;2022-08-03T10:44:36;101311.38;;;34.13;44.54
8101;BME280;4093;53.470;9.832;2022-08-03T10:47:05;101306.66;;;32.97;46.76
8101;BME280;4093;53.470;9.832;2022-08-03T10:49:32;101317.78;;;33.53;45.91
8101;BME280;4093;53.470;9.832;2022-08-03T10:51:59;101305.31;;;33.44;45.92
8101;BME280;4093;53.470;9.832;2022-08-03T10:54:39;101319.31;;;33.21;46.86
8101;BME280;4093;53.470;9.832;2022-08-03T10:57:48;101315.66;;;33.81;45.95
8101;BME280;4093;53.470;9.832;2022-08-03T11:00:15;101309.53;;;34.29;45.63
8101;BME280;4093;53.470;9.832;2022-08-03T11:03:02;101303.91;;;33.31;47.76
8101;BME280;4093;53.470;9.832;2022-08-03T11:05:32;101313.22;;;34.37;45.77
8101;BME280;4093;53.470;9.832;2022-08-03T11:08:25;101294.31;;;35.02;44.05
8101;BME280;4093;53.470;9.832;2022-08-03T11:10:54;101279.16;;;33.46;45.59
8101;BME280;4093;53.470;9.832;2022-08-03T11:13:22;101296.63;;;32.55;48.23
8101;BME280;4093;53.470;9.832;2022-08-03T11:15:51;101302.44;;;33.29;47.23
8101;BME280;4093;53.470;9.832;2022-08-03T11:18:19;101292.13;;;33.58;47.54
8101;BME280;4093;53.470;9.832;2022-08-03T11:20:48;101317.94;;;34.10;46.33
8101;BME280;4093;53.470;9.832;2022-08-03T11:23:17;101308.84;;;34.03;44.31
8101;BME280;4093;53.470;9.832;2022-08-03T11:26:09;101300.44;;;34.47;43.75
8101;BME280;4093;53.470;9.832;2022-08-03T11:28:36;101301.25;;;34.88;43.53
8101;BME280;4093;53.470;9.832;2022-08-03T11:31:44;101307.91;;;35.00;43.85
8101;BME280;4093;53.470;9.832;2022-08-03T11:34:14;101300.22;;;34.89;44.01
8101;BME280;4093;53.470;9.832;2022-08-03T11:39:47;101302.38;;;35.02;44.22
8101;BME280;4093;53.470;9.832;2022-08-03T11:42:39;101295.75;;;34.49;42.62
8101;BME280;4093;53.470;9.832;2022-08-03T11:45:08;101287.22;;;34.29;43.18
8101;BME280;4093;53.470;9.832;2022-08-03T11:47:39;101297.94;;;34.62;42.26
8101;BME280;4093;53.470;9.832;2022-08-03T11:50:07;101291.34;;;34.89;42.08
8101;BME280;4093;53.470;9.832;2022-08-03T11:52:37;101284.00;;;34.34;43.26
8101;BME280;4093;53.470;9.832;2022-08-03T11:55:08;101278.44;;;34.68;43.35
8101;BME280;4093;53.470;9.832;2022-08-03T11:57:35;101280.66;;;34.31;43.61
8101;BME280;4093;53.470;9.832;2022-08-03T12:00:03;101282.19;;;34.26;43.85
8101;BME280;4093;53.470;9.832;2022-08-03T12:02:53;101286.84;;;34.57;42.60
8101;BME280;4093;53.470;9.832;2022-08-03T12:05:32;101268.25;;;34.22;43.21
8101;BME280;4093;53.470;9.832;2022-08-03T12:07:58;101286.34;;;33.96;44.65
8101;BME280;4093;53.470;9.832;2022-08-03T12:10:25;101283.41;;;34.95;42.59
8101;BME280;4093;53.470;9.832;2022-08-03T12:12:54;101278.94;;;34.80;43.81
8101;BME280;4093;53.470;9.832;2022-08-03T12:15:24;101285.72;;;35.54;41.91
8101;BME280;4093;53.470;9.832;2022-08-03T12:17:50;101273.72;;;35.26;42.49
8101;BME280;4093;53.470;9.832;2022-08-03T12:20:22;101271.91;;;34.70;43.88
8101;BME280;4093;53.470;9.832;2022-08-03T12:22:49;101276.94;;;34.65;44.54
8101;BME280;4093;53.470;9.832;2022-08-03T12:25:21;101284.06;;;34.97;42.33
8101;BME280;4093;53.470;9.832;2022-08-03T12:27:49;101274.59;;;35.26;42.15
8101;BME280;4093;53.470;9.832;2022-08-03T12:30:17;101280.97;;;34.28;43.09
8101;BME280;4093;53.470;9.832;2022-08-03T12:32:44;101273.44;;;35.12;42.37
8101;BME280;4093;53.470;9.832;2022-08-03T12:35:22;101269.81;;;35.36;41.80
8101;BME280;4093;53.470;9.832;2022-08-03T12:37:49;101261.16;;;35.18;41.31
8101;BME280;4093;53.470;9.832;2022-08-03T12:40:23;101274.16;;;35.68;40.80
8101;BME280;4093;53.470;9.832;2022-08-03T12:42:50;101269.16;;;35.65;41.85
8101;BME280;4093;53.470;9.832;2022-08-03T12:45:18;101266.44;;;34.95;42.69
8101;BME280;4093;53.470;9.832;2022-08-03T12:47:50;101281.88;;;35.01;43.46
8101;BME280;4093;53.470;9.832;2022-08-03T12:50:24;101277.34;;;35.41;42.74
8101;BME280;4093;53.470;9.832;2022-08-03T12:52:52;101265.28;;;35.29;41.60
8101;BME280;4093;53.470;9.832;2022-08-03T12:55:20;101272.94;;;36.02;40.59
8101;BME280;4093;53.470;9.832;2022-08-03T12:57:47;101262.94;;;36.11;40.58
8101;BME280;4093;53.470;9.832;2022-08-03T13:00:16;101258.84;;;35.38;40.93
8101;BME280;4093;53.470;9.832;2022-08-03T13:02:43;101259.47;;;36.02;40.13
8101;BME280;4093;53.470;9.832;2022-08-03T13:05:10;101240.56;;;36.25;39.09
8101;BME280;4093;53.470;9.832;2022-08-03T13:07:40;101259.41;;;36.48;40.08
8101;BME280;4093;53.470;9.832;2022-08-03T13:10:08;101248.53;;;35.58;39.97
8101;BME280;4093;53.470;9.832;2022-08-03T13:12:45;101269.47;;;35.39;41.10
8101;BME280;4093;53.470;9.832;2022-08-03T13:15:12;101255.72;;;35.88;40.42
8101;BME280;4093;53.470;9.832;2022-08-03T13:17:38;101261.78;;;35.28;41.86
8101;BME280;4093;53.470;9.832;2022-08-03T13:20:06;101269.75;;;35.76;40.86
8101;BME280;4093;53.470;9.832;2022-08-03T13:22:33;101252.16;;;35.65;40.95